createdAt,value
2022-09-06T00:02:22.046Z,19.22
2022-09-06T00:04:57.865Z,19.22
2022-09-06T00:07:32.317Z,19.22
2022-09-06T00:10:08.066Z,19.13
2022-09-06T00:12:42.465Z,19.26
2022-09-06T00:15:17.014Z,19.17
2022-09-06T00:17:51.781Z,19.28
2022-09-06T00:20:28.092Z,19.21
2022-09-06T00:23:04.069Z,19.12
2022-09-06T00:25:38.491Z,18.98
2022-09-06T00:28:12.807Z,18.89
2022-09-06T00:30:47.831Z,18.89
2022-09-06T00:33:21.955Z,18.97
2022-09-06T00:36:01.525Z,18.93
2022-09-06T00:38:35.742Z,18.93
2022-09-06T00:41:13.023Z,19.01
2022-09-06T00:43:47.377Z,18.97
2022-09-06T00:46:24.713Z,18.92
2022-09-06T00:49:03.634Z,18.97
2022-09-06T00:51:39.924Z,18.88
2022-09-06T00:54:14.058Z,18.74
2022-09-06T00:56:48.726Z,18.81
2022-09-06T00:59:23.250Z,18.81
2022-09-06T01:01:57.762Z,18.84
2022-09-06T01:04:32.743Z,18.74
2022-09-06T01:07:19.833Z,18.64
2022-09-06T01:10:09.979Z,18.63
2022-09-06T01:12:58.620Z,18.58
2022-09-06T01:15:46.554Z,18.47
2022-09-06T01:18:30.581Z,18.39
2022-09-06T01:21:30.628Z,18.47
2022-09-06T01:24:52.603Z,18.60
2022-09-06T01:27:55.305Z,18.42
2022-09-06T01:30:32.790Z,18.51
2022-09-06T01:33:15.530Z,18.59
2022-09-06T01:35:55.564Z,18.64
2022-09-06T01:38:29.880Z,18.66
2022-09-06T01:41:04.233Z,18.40
2022-09-06T01:43:42.875Z,18.34
2022-09-06T01:46:27.421Z,18.54
2022-09-06T01:49:19.518Z,18.30
2022-09-06T01:52:06.795Z,18.19
2022-09-06T01:54:58.089Z,18.04
2022-09-06T01:57:55.128Z,17.96
2022-09-06T02:00:30.677Z,17.94
2022-09-06T02:03:12.312Z,17.83
2022-09-06T02:05:51.608Z,17.87
2022-09-06T02:08:32.686Z,17.84
2022-09-06T02:11:09.938Z,17.79
2022-09-06T02:13:50.683Z,17.84
2022-09-06T02:16:28.004Z,17.76
2022-09-06T02:19:07.890Z,17.80
2022-09-06T02:21:45.457Z,17.72
2022-09-06T02:24:23.593Z,17.79
2022-09-06T02:26:58.007Z,17.80
2022-09-06T02:29:32.487Z,17.86
2022-09-06T02:32:14.510Z,17.80
2022-09-06T02:34:49.608Z,17.88
2022-09-06T02:37:26.270Z,17.98
2022-09-06T02:40:00.694Z,17.94
2022-09-06T02:42:34.876Z,17.95
2022-09-06T02:45:10.149Z,17.93
2022-09-06T02:47:45.586Z,17.85
2022-09-06T02:50:19.968Z,17.93
2022-09-06T02:53:06.571Z,17.99
2022-09-06T02:55:41.524Z,18.04
2022-09-06T02:58:16.537Z,18.19
2022-09-06T03:00:51.436Z,18.21
2022-09-06T03:03:27.489Z,18.15
2022-09-06T03:06:02.308Z,18.17
2022-09-06T03:08:36.770Z,18.01
2022-09-06T03:11:11.188Z,17.69
2022-09-06T03:13:45.257Z,17.73
2022-09-06T03:16:20.809Z,17.78
2022-09-06T03:18:56.398Z,17.81
2022-09-06T03:21:30.846Z,17.77
2022-09-06T03:24:05.095Z,17.77
2022-09-06T03:26:39.435Z,17.82
2022-09-06T03:29:13.472Z,17.75
2022-09-06T03:31:47.806Z,17.67
2022-09-06T03:34:23.312Z,17.69
2022-09-06T03:36:57.710Z,17.59
2022-09-06T03:39:31.925Z,17.70
2022-09-06T03:42:06.426Z,17.72
2022-09-06T03:44:40.613Z,18.17
2022-09-06T03:47:18.875Z,18.45
2022-09-06T03:49:55.280Z,18.29
2022-09-06T03:52:29.600Z,18.12
2022-09-06T03:55:04.083Z,17.97
2022-09-06T03:57:38.452Z,17.53
2022-09-06T04:00:15.311Z,17.36
2022-09-06T04:02:49.684Z,17.25
2022-09-06T04:05:25.193Z,17.14
2022-09-06T04:07:59.595Z,17.14
2022-09-06T04:10:33.900Z,17.23
2022-09-06T04:13:08.301Z,16.99
2022-09-06T04:15:46.209Z,16.97
2022-09-06T04:18:22.002Z,17.03
2022-09-06T04:20:58.099Z,17.11
2022-09-06T04:23:36.420Z,17.08
2022-09-06T04:26:13.396Z,17.10
2022-09-06T04:28:48.018Z,17.16
2022-09-06T04:31:22.263Z,17.13
2022-09-06T04:33:56.945Z,17.12
2022-09-06T04:36:32.430Z,17.10
2022-09-06T04:39:07.032Z,18.07
2022-09-06T04:41:41.129Z,18.11
2022-09-06T04:44:15.474Z,17.81
2022-09-06T04:46:49.779Z,17.68
2022-09-06T04:49:24.571Z,17.56
2022-09-06T04:52:00.090Z,17.46
2022-09-06T04:54:34.548Z,17.46
2022-09-06T04:57:08.908Z,17.49
2022-09-06T04:59:43.307Z,17.50
2022-09-06T05:02:20.296Z,17.62
2022-09-06T05:04:55.392Z,17.51
2022-09-06T05:07:30.846Z,17.61
2022-09-06T05:10:06.338Z,17.62
2022-09-06T05:12:44.182Z,17.76
2022-09-06T05:15:19.370Z,17.86
2022-09-06T05:17:53.599Z,17.90
2022-09-06T05:20:28.096Z,17.94
2022-09-06T05:23:03.596Z,18.05
2022-09-06T05:25:37.955Z,18.14
2022-09-06T05:28:12.028Z,18.24
2022-09-06T05:30:46.814Z,18.34
2022-09-06T05:33:23.089Z,18.37
2022-09-06T05:35:57.636Z,18.44
2022-09-06T05:38:33.487Z,18.57
2022-09-06T05:41:08.123Z,18.59
2022-09-06T05:43:42.375Z,18.62
2022-09-06T05:46:17.707Z,18.79
2022-09-06T05:48:55.753Z,18.87
2022-09-06T05:51:30.216Z,18.97
2022-09-06T05:54:05.847Z,19.05
2022-09-06T05:56:40.225Z,19.36
2022-09-06T05:59:14.487Z,19.16
2022-09-06T06:01:53.056Z,19.16
2022-09-06T06:04:27.555Z,19.21
2022-09-06T06:07:01.766Z,19.21
2022-09-06T06:09:37.955Z,19.27
2022-09-06T06:12:12.087Z,19.32
2022-09-06T06:14:49.257Z,19.56
2022-09-06T06:17:23.639Z,19.50
2022-09-06T06:19:58.442Z,19.64
2022-09-06T06:22:32.511Z,19.77
2022-09-06T06:25:09.076Z,19.94
2022-09-06T06:27:46.307Z,19.85
2022-09-06T06:30:20.692Z,20.09
2022-09-06T06:32:54.823Z,20.04
2022-09-06T06:35:29.174Z,20.17
2022-09-06T06:38:03.733Z,20.24
2022-09-06T06:40:39.550Z,20.28
2022-09-06T06:43:14.680Z,20.29
2022-09-06T06:45:51.070Z,20.41
2022-09-06T06:48:25.293Z,20.57
2022-09-06T06:51:00.043Z,20.52
2022-09-06T06:53:35.398Z,20.64
2022-09-06T06:56:19.855Z,20.56
2022-09-06T06:58:57.809Z,20.75
2022-09-06T07:01:34.314Z,20.75
2022-09-06T07:04:10.575Z,20.82
2022-09-06T07:12:41.038Z,21.02
2022-09-06T07:15:15.199Z,21.01
2022-09-06T07:17:49.727Z,21.10
2022-09-06T07:20:24.130Z,21.10
2022-09-06T07:25:55.619Z,21.31
2022-09-06T07:28:31.821Z,21.44
2022-09-06T07:31:06.304Z,21.73
2022-09-06T07:33:41.097Z,21.56
2022-09-06T07:36:18.174Z,21.70
2022-09-06T07:38:53.726Z,21.70
2022-09-06T07:41:28.098Z,21.77
2022-09-06T07:44:04.309Z,21.91
2022-09-06T07:46:38.526Z,22.08
2022-09-06T07:49:13.082Z,22.14
2022-09-06T07:51:47.340Z,22.14
2022-09-06T07:54:30.797Z,22.32
2022-09-06T07:57:05.310Z,22.52
2022-09-06T07:59:42.996Z,22.50
2022-09-06T08:02:18.033Z,22.57
2022-09-06T08:04:52.441Z,22.58
2022-09-06T08:07:41.779Z,22.69
2022-09-06T08:10:18.456Z,22.87
2022-09-06T08:12:54.447Z,23.06
2022-09-06T08:15:33.479Z,23.23
2022-09-06T08:18:07.815Z,23.25
2022-09-06T08:20:42.249Z,23.48
2022-09-06T08:23:16.287Z,23.47
2022-09-06T08:25:58.641Z,23.62
2022-09-06T08:28:32.756Z,23.59
2022-09-06T08:31:10.305Z,23.78
2022-09-06T08:33:45.685Z,23.95
2022-09-06T08:36:20.555Z,24.21
2022-09-06T08:38:54.844Z,24.30
2022-09-06T08:41:34.331Z,24.56
2022-09-06T08:47:10.567Z,24.95
2022-09-06T08:49:46.320Z,25.14
2022-09-06T08:52:31.388Z,25.38
2022-09-06T08:55:23.309Z,25.39
2022-09-06T08:58:13.402Z,25.35
2022-09-06T09:00:51.850Z,25.23
2022-09-06T09:03:32.475Z,25.44
2022-09-06T09:06:10.372Z,25.57
2022-09-06T09:08:53.600Z,25.59
2022-09-06T09:11:28.817Z,25.63
2022-09-06T09:14:06.891Z,25.89
2022-09-06T09:16:41.021Z,25.90
2022-09-06T09:19:16.944Z,26.01
2022-09-06T09:21:51.152Z,26.10
2022-09-06T09:24:25.475Z,25.90
2022-09-06T09:27:05.160Z,25.93
2022-09-06T09:32:53.322Z,26.17
2022-09-06T09:35:36.311Z,26.38
2022-09-06T09:38:12.416Z,26.52
2022-09-06T09:40:52.144Z,26.64
2022-09-06T09:43:28.050Z,26.73
2022-09-06T09:46:17.744Z,26.84
2022-09-06T09:49:06.769Z,26.85
2022-09-06T09:51:44.066Z,26.66
2022-09-06T09:54:33.138Z,26.71
2022-09-06T09:57:11.911Z,26.88
2022-09-06T09:59:49.334Z,26.64
2022-09-06T10:02:28.628Z,26.68
2022-09-06T10:05:06.460Z,26.34
2022-09-06T10:07:47.460Z,26.45
2022-09-06T10:10:24.335Z,26.68
2022-09-06T10:13:20.379Z,26.84
2022-09-06T10:15:55.650Z,26.93
2022-09-06T10:18:36.002Z,26.98
2022-09-06T10:21:12.911Z,26.73
2022-09-06T10:27:02.838Z,27.04
2022-09-06T10:29:45.360Z,27.16
2022-09-06T10:32:37.207Z,27.33
2022-09-06T10:35:17.777Z,27.48
2022-09-06T10:38:13.469Z,27.24
2022-09-06T10:41:02.290Z,27.05
2022-09-06T10:43:47.150Z,27.01
2022-09-06T10:46:28.378Z,27.15
2022-09-06T10:49:03.127Z,27.12
2022-09-06T10:51:41.482Z,27.52
2022-09-06T10:54:18.495Z,27.73
2022-09-06T10:56:59.570Z,27.54
2022-09-06T10:59:37.198Z,27.83
2022-09-06T11:02:23.528Z,28.15
2022-09-06T11:10:57.643Z,28.38
2022-09-06T11:13:33.890Z,28.48
2022-09-06T11:16:14.502Z,28.41
2022-09-06T11:18:54.439Z,28.64
2022-09-06T11:22:03.994Z,28.83
2022-09-06T11:24:57.947Z,29.02
2022-09-06T11:27:37.507Z,29.16
2022-09-06T11:30:16.887Z,29.24
2022-09-06T11:32:52.466Z,29.47
2022-09-06T11:35:28.752Z,29.49
2022-09-06T11:38:05.762Z,29.60
2022-09-06T11:40:42.456Z,29.56
2022-09-06T11:43:19.843Z,29.74
2022-09-06T11:45:55.429Z,29.56
2022-09-06T11:48:37.517Z,28.79
2022-09-06T11:51:12.498Z,28.69
2022-09-06T11:54:20.091Z,28.44
2022-09-06T11:56:59.569Z,28.43
2022-09-06T11:59:37.142Z,28.12
2022-09-06T12:02:35.311Z,27.97
2022-09-06T12:05:27.262Z,27.75
2022-09-06T12:08:32.999Z,27.70
2022-09-06T12:11:25.576Z,27.64
2022-09-06T12:14:04.357Z,27.52
2022-09-06T12:17:30.453Z,27.67
2022-09-06T12:20:07.524Z,28.16
2022-09-06T12:23:03.567Z,28.86
2022-09-06T12:25:58.150Z,28.97
2022-09-06T12:28:49.899Z,29.15
2022-09-06T12:31:32.867Z,28.51
2022-09-06T12:34:12.755Z,28.33
2022-09-06T12:36:58.633Z,27.88
2022-09-06T12:39:33.526Z,28.23
2022-09-06T12:42:14.356Z,28.19
2022-09-06T12:44:50.969Z,27.99
2022-09-06T12:47:29.281Z,27.61
2022-09-06T12:50:14.459Z,27.42
2022-09-06T12:52:52.092Z,27.27
2022-09-06T12:55:28.535Z,27.29
2022-09-06T12:58:05.038Z,27.35
2022-09-06T13:00:43.401Z,28.11
2022-09-06T13:03:28.809Z,28.27
2022-09-06T13:06:06.696Z,28.17
2022-09-06T13:08:47.552Z,28.15
2022-09-06T13:11:27.261Z,27.87
2022-09-06T13:14:04.017Z,27.85
2022-09-06T13:16:44.948Z,27.74
2022-09-06T13:19:30.652Z,27.73
2022-09-06T13:22:07.807Z,28.35
2022-09-06T13:24:49.177Z,28.71
2022-09-06T13:27:25.182Z,29.12
2022-09-06T13:30:01.025Z,29.51
2022-09-06T13:32:36.785Z,29.35
2022-09-06T13:35:10.944Z,28.73
2022-09-06T13:37:52.052Z,28.39
2022-09-06T13:41:06.954Z,28.16
2022-09-06T13:43:45.069Z,28.29
2022-09-06T13:46:19.274Z,28.55
2022-09-06T13:48:55.198Z,28.66
2022-09-06T13:51:29.440Z,28.81
2022-09-06T13:54:08.295Z,28.80
2022-09-06T13:56:44.784Z,28.86
2022-09-06T13:59:19.484Z,28.89
2022-09-06T14:02:03.035Z,28.93
2022-09-06T14:04:37.856Z,28.57
2022-09-06T14:07:12.092Z,28.43
2022-09-06T14:09:47.563Z,28.43
2022-09-06T14:12:23.109Z,28.49
2022-09-06T14:14:57.561Z,28.52
2022-09-06T14:17:32.957Z,28.56
2022-09-06T14:20:08.753Z,28.63
2022-09-06T14:22:42.823Z,28.48
2022-09-06T14:25:17.323Z,28.32
2022-09-06T14:27:52.809Z,28.07
2022-09-06T14:30:27.233Z,27.90
2022-09-06T14:33:01.347Z,28.06
2022-09-06T14:35:35.892Z,28.15
2022-09-06T14:38:10.364Z,28.11
2022-09-06T14:40:44.793Z,27.92
2022-09-06T14:43:20.289Z,27.94
2022-09-06T14:45:54.731Z,27.81
2022-09-06T14:48:31.452Z,27.86
2022-09-06T14:51:10.340Z,28.01
2022-09-06T14:53:45.839Z,27.98
2022-09-06T14:56:21.381Z,27.82
2022-09-06T14:58:59.883Z,27.65
2022-09-06T15:01:38.320Z,27.46
2022-09-06T15:04:13.330Z,27.49
2022-09-06T15:06:48.518Z,27.32
2022-09-06T15:09:22.847Z,27.26
2022-09-06T15:11:57.346Z,27.37
2022-09-06T15:14:34.099Z,27.26
2022-09-06T15:17:09.052Z,27.21
2022-09-06T15:19:43.185Z,27.11
2022-09-06T15:22:17.653Z,26.97
2022-09-06T15:24:51.940Z,27.01
2022-09-06T15:27:26.367Z,26.94
2022-09-06T15:30:01.837Z,26.93
2022-09-06T15:32:36.317Z,26.92
2022-09-06T15:35:10.649Z,26.95
2022-09-06T15:37:45.680Z,26.86
2022-09-06T15:40:24.420Z,26.80
2022-09-06T15:42:58.821Z,26.81
2022-09-06T15:45:47.306Z,26.77
2022-09-06T15:48:21.773Z,26.66
2022-09-06T15:50:55.886Z,26.69
2022-09-06T15:53:30.367Z,26.66
2022-09-06T15:56:04.992Z,26.61
2022-09-06T15:58:39.799Z,26.54
2022-09-06T16:01:18.439Z,26.47
2022-09-06T16:03:55.701Z,26.39
2022-09-06T16:06:32.528Z,26.18
2022-09-06T16:09:09.821Z,26.18
2022-09-06T16:11:45.274Z,26.01
2022-09-06T16:14:20.320Z,25.99
2022-09-06T16:16:57.602Z,25.83
2022-09-06T16:19:32.352Z,25.86
2022-09-06T16:22:06.641Z,25.85
2022-09-06T16:24:41.081Z,25.73
2022-09-06T16:27:15.371Z,25.69
2022-09-06T16:29:50.004Z,25.62
2022-09-06T16:32:25.838Z,25.51
2022-09-06T16:35:01.041Z,25.47
2022-09-06T16:37:35.253Z,25.46
2022-09-06T16:40:11.223Z,25.45
2022-09-06T16:42:45.482Z,25.41
2022-09-06T16:45:19.964Z,25.38
2022-09-06T16:47:55.469Z,25.35
2022-09-06T16:50:29.993Z,25.33
2022-09-06T16:53:04.222Z,25.31
2022-09-06T16:55:39.384Z,25.37
2022-09-06T16:58:15.769Z,25.31
2022-09-06T17:00:52.472Z,25.26
2022-09-06T17:03:28.544Z,25.29
2022-09-06T17:06:03.708Z,25.11
2022-09-06T17:08:38.606Z,24.93
2022-09-06T17:11:15.873Z,24.93
2022-09-06T17:13:52.243Z,24.81
2022-09-06T17:16:44.899Z,24.59
2022-09-06T17:19:20.643Z,24.44
2022-09-06T17:21:55.403Z,24.31
2022-09-06T17:24:29.748Z,24.12
2022-09-06T17:27:04.659Z,24.21
2022-09-06T17:29:40.140Z,23.97
2022-09-06T17:32:14.685Z,23.91
2022-09-06T17:34:50.364Z,23.74
2022-09-06T17:37:24.962Z,23.71
2022-09-06T17:39:59.360Z,23.66
2022-09-06T17:42:33.974Z,23.51
2022-09-06T17:45:09.086Z,23.45
2022-09-06T17:47:43.650Z,23.41
2022-09-06T17:50:19.805Z,23.42
2022-09-06T17:52:54.433Z,23.31
2022-09-06T17:55:30.096Z,23.30
2022-09-06T17:58:04.658Z,23.18
2022-09-06T18:00:39.802Z,23.25
2022-09-06T18:03:14.560Z,23.22
2022-09-06T18:05:50.204Z,23.27
2022-09-06T18:08:27.151Z,22.98
2022-09-06T18:11:07.285Z,23.10
2022-09-06T18:13:43.218Z,23.02
2022-09-06T18:16:17.574Z,22.97
2022-09-06T18:18:53.524Z,22.97
2022-09-06T18:21:30.994Z,22.81
2022-09-06T18:24:06.745Z,22.87
2022-09-06T18:26:41.247Z,22.85
2022-09-06T18:29:18.503Z,22.70
2022-09-06T18:31:54.132Z,22.79
2022-09-06T18:34:28.773Z,22.68
2022-09-06T18:37:05.318Z,22.57
2022-09-06T18:39:42.486Z,22.48
2022-09-06T18:42:16.793Z,22.55
2022-09-06T18:44:51.453Z,22.57
2022-09-06T18:47:25.880Z,22.55
2022-09-06T18:50:01.162Z,22.51
2022-09-06T18:52:38.481Z,22.54
2022-09-06T18:55:13.080Z,22.35
2022-09-06T18:57:47.676Z,22.35
2022-09-06T19:00:22.305Z,22.28
2022-09-06T19:02:56.568Z,22.45
2022-09-06T19:05:31.253Z,22.49
2022-09-06T19:08:06.930Z,22.62
2022-09-06T19:10:41.456Z,22.53
2022-09-06T19:13:15.794Z,22.49
2022-09-06T19:15:51.191Z,22.43
2022-09-06T19:18:26.039Z,22.42
2022-09-06T19:21:01.208Z,22.34
2022-09-06T19:23:39.995Z,22.22
2022-09-06T19:26:17.471Z,22.18
2022-09-06T19:28:53.724Z,22.14
2022-09-06T19:31:31.144Z,22.07
2022-09-06T19:34:05.983Z,22.05
2022-09-06T19:36:40.604Z,22.00
2022-09-06T19:39:17.528Z,21.96
2022-09-06T19:41:52.050Z,21.92
2022-09-06T19:44:26.105Z,21.90
2022-09-06T19:47:00.779Z,21.76
2022-09-06T19:49:35.014Z,21.76
2022-09-06T19:52:11.647Z,22.13
2022-09-06T19:54:47.077Z,22.29
2022-09-06T19:57:21.452Z,22.32
2022-09-06T19:59:56.109Z,22.37
2022-09-06T20:02:30.586Z,22.24
2022-09-06T20:05:05.261Z,22.18
2022-09-06T20:07:39.528Z,22.32
2022-09-06T20:10:16.014Z,22.20
2022-09-06T20:12:52.062Z,22.11
2022-09-06T20:16:28.832Z,22.38
2022-09-06T20:19:03.445Z,22.38
2022-09-06T20:21:37.577Z,21.95
2022-09-06T20:24:11.984Z,21.74
2022-09-06T20:26:46.011Z,21.71
2022-09-06T20:29:20.848Z,21.75
2022-09-06T20:31:56.354Z,21.70
2022-09-06T20:34:31.477Z,21.63
2022-09-06T20:37:05.639Z,21.49
2022-09-06T20:39:40.148Z,21.73
2022-09-06T20:42:14.346Z,21.51
2022-09-06T20:44:48.690Z,21.51
2022-09-06T20:47:24.194Z,21.56
2022-09-06T20:49:58.583Z,21.52
2022-09-06T20:52:32.639Z,21.62
2022-09-06T20:55:08.250Z,21.64
2022-09-06T20:57:43.397Z,21.73
2022-09-06T21:00:18.048Z,21.52
2022-09-06T21:02:53.475Z,21.50
2022-09-06T21:05:28.182Z,21.38
2022-09-06T21:08:02.280Z,21.40
2022-09-06T21:10:36.704Z,21.36
2022-09-06T21:13:10.979Z,21.45
2022-09-06T21:15:49.103Z,21.43
2022-09-06T21:18:25.261Z,21.39
2022-09-06T21:21:01.652Z,21.43
2022-09-06T21:23:38.243Z,21.29
2022-09-06T21:26:15.883Z,21.19
2022-09-06T21:28:50.748Z,21.11
2022-09-06T21:31:27.084Z,21.26
2022-09-06T21:34:05.075Z,21.11
2022-09-06T21:36:40.284Z,20.99
2022-09-06T21:39:14.957Z,21.11
2022-09-06T21:41:49.424Z,21.05
2022-09-06T21:44:23.620Z,20.96
2022-09-06T21:46:58.953Z,20.86
2022-09-06T21:49:34.500Z,20.80
2022-09-06T21:52:08.948Z,20.81
2022-09-06T21:54:43.047Z,20.86
2022-09-06T21:57:18.043Z,20.82
2022-09-06T21:59:52.197Z,20.56
2022-09-06T22:02:27.262Z,20.46
2022-09-06T22:05:06.562Z,20.44
2022-09-06T22:07:40.674Z,20.68
2022-09-06T22:10:15.296Z,20.66
2022-09-06T22:12:49.385Z,20.46
2022-09-06T22:15:23.877Z,20.34
2022-09-06T22:17:58.002Z,20.24
2022-09-06T22:20:33.747Z,20.24
2022-09-06T22:23:10.019Z,20.30
2022-09-06T22:25:44.402Z,20.28
2022-09-06T22:28:18.449Z,20.28
2022-09-06T22:30:52.785Z,20.26
2022-09-06T22:33:27.384Z,20.23
2022-09-06T22:36:03.781Z,20.12
2022-09-06T22:38:38.256Z,20.01
2022-09-06T22:41:12.845Z,20.05
2022-09-06T22:43:46.918Z,20.05
2022-09-06T22:46:21.608Z,20.21
2022-09-06T22:48:56.543Z,20.22
2022-09-06T22:51:32.417Z,20.30
2022-09-06T22:54:06.764Z,20.13
2022-09-06T22:56:43.843Z,19.97
2022-09-06T22:59:18.169Z,19.94
2022-09-06T23:01:52.552Z,19.90
2022-09-06T23:04:26.609Z,19.75
2022-09-06T23:07:02.727Z,19.68
2022-09-06T23:09:36.988Z,19.64
2022-09-06T23:12:12.068Z,19.63
2022-09-06T23:14:46.320Z,19.62
2022-09-06T23:17:20.759Z,19.56
2022-09-06T23:19:55.527Z,19.52
2022-09-06T23:22:31.666Z,19.43
2022-09-06T23:25:07.233Z,19.42
2022-09-06T23:27:41.572Z,19.42
2022-09-06T23:30:17.404Z,19.34
2022-09-06T23:32:51.777Z,19.33
2022-09-06T23:35:26.040Z,19.41
2022-09-06T23:38:01.881Z,19.44
2022-09-06T23:40:36.156Z,19.38
2022-09-06T23:43:14.554Z,19.31
2022-09-06T23:45:48.728Z,19.27
2022-09-06T23:48:23.355Z,19.27
2022-09-06T23:50:57.546Z,19.25
2022-09-06T23:53:34.066Z,19.19
2022-09-06T23:56:08.584Z,19.19
2022-09-06T23:58:43.187Z,19.30
